Flight Track Log - Related Links

Times and Time Zones

All times are in EDT time to prevent confusion due to time zone crossing. See the KAP169 flight status page for this flight to view local times or setup timezone preferences in your user account.

Time Position Orientation Groundspeed Altitude Reporting Facility
EDT Latitude Longitude Course Direction KTS MPH feet Rate Location/Type
Thu 09:34:00 AM 42.3667 -71.0167 270° West 93 107 400  Level KA90
Thu 09:34:59 AM 42.3667 -71.0500 270° West 101 116 1,300 768 Climbing KA90
Thu 09:36:05 AM 42.3667 -71.1000 270° West 107 123 2,000 614 Climbing KA90
Thu 09:37:06 AM 42.3833 -71.1167 324° Northwest 114 131 2,600 574 Climbing KA90
Thu 09:38:00 AM 42.4000 -71.1167 360° North 114 131 3,100 526 Climbing KA90
Thu 09:39:00 AM 42.4333 -71.1000 20° North 113 130 3,600 524 Climbing KA90
Thu 09:40:06 AM 42.4667 -71.0833 20° North 120 138 4,200 571 Climbing KA90
Thu 09:41:06 AM 42.5000 -71.0833 360° North 111 128 4,800 555 Climbing KA90
Thu 09:42:05 AM 42.5333 -71.0667 20° North 115 132 5,300 559 Climbing KA90
Thu 09:43:04 AM 42.5667 -71.0500 20° North 122 140 5,900 550 Climbing KA90
Thu 09:44:05 AM 42.6000 -71.0333 20° North 129 148 6,400 571 Climbing KA90
Thu 09:45:10 AM 42.6333 -71.0167 20° North 129 148 7,100 347 Climbing KA90
Thu 09:46:06 AM 42.6667 -71.0000 20° North 150 173 7,100  Level KA90
Thu 09:47:18 AM 42.7167 -70.9833 14° North 163 188 7,100  Level KA90
Thu 09:48:23 AM 42.7667 -70.9667 14° North 160 184 7,100  Level KA90
Thu 09:49:12 AM 42.8000 -70.9500 20° North 159 183 7,100  Level KA90
Thu 09:50:06 AM 42.8500 -70.9333 14° North 158 182 7,100  Level KA90
Thu 09:51:11 AM 42.8833 -70.9167 20° North 154 177 7,100  Level KA90
Thu 09:52:06 AM 42.9167 -70.8833 36° Northeast 178 205 7,100  Level KA90
Thu 09:53:06 AM 42.9500 -70.8333 48° Northeast 182 209 7,100  Level KA90
Thu 09:54:06 AM 42.9833 -70.7833 48° Northeast 179 206 7,100  Level KA90
Thu 09:55:06 AM 43.0167 -70.7333 48° Northeast 174 200 7,100  Level KA90
Thu 09:56:16 AM 43.0667 -70.6833 36° Northeast 176 203 7,100  Level KA90
Thu 09:57:12 AM 43.0833 -70.6333 65° Northeast 178 205 7,100  Level KA90
Thu 09:59:00 AM 43.1566 -70.6502 350° North  Level FlightAware Approximate
Thu 10:06:00 AM 43.4413 -70.5424 59° Northeast  Level FlightAware Approximate
Thu 10:07:00 AM 43.4622 -70.4935 60° Northeast  Level FlightAware Approximate
Thu 10:08:00 AM 43.4831 -70.4444 60° Northeast  Level FlightAware Approximate
Thu 10:09:00 AM 43.5039 -70.3954 60° Northeast  Level FlightAware Approximate
Thu 10:10:00 AM 43.5248 -70.3463 60° Northeast  Level FlightAware Approximate
Thu 10:11:00 AM 43.5456 -70.2972 60° Northeast  Level FlightAware Approximate
Thu 10:12:00 AM 43.5664 -70.2480 60° Northeast  Level FlightAware Approximate
Thu 10:13:00 AM 43.5872 -70.1989 60° Northeast  Level FlightAware Approximate
Thu 10:14:00 AM 43.6079 -70.1496 60° Northeast  Level FlightAware Approximate
Thu 10:15:00 AM 43.6287 -70.1004 60° Northeast  Level FlightAware Approximate
Thu 10:16:00 AM 43.6494 -70.0511 60° Northeast  Level FlightAware Approximate
Thu 10:17:00 AM 43.6701 -70.0018 60° Northeast  Level FlightAware Approximate
Thu 10:18:00 AM 43.6908 -69.9524 60° Northeast  Level FlightAware Approximate
Thu 10:19:00 AM 43.7114 -69.9030 60° Northeast  Level FlightAware Approximate
Thu 10:20:00 AM 43.7320 -69.8536 60° Northeast  Level FlightAware Approximate
Thu 10:21:00 AM 43.7527 -69.8042 60° Northeast  Level FlightAware Approximate
Thu 10:22:00 AM 43.7732 -69.7547 60° Northeast  Level FlightAware Approximate
Thu 10:23:00 AM 43.7938 -69.7051 60° Northeast  Level FlightAware Approximate
Thu 10:24:00 AM 43.8144 -69.6556 60° Northeast  Level FlightAware Approximate
Thu 10:25:00 AM 43.8415 -69.6127 47° Northeast  Level FlightAware Approximate
Thu 10:26:00 AM 43.8594 -69.5623 71° East  Level FlightAware Approximate
Thu 10:27:00 AM 43.8822 -69.5178 36° Northeast  Level FlightAware Approximate
Thu 10:28:00 AM 43.9027 -69.4684 61° Northeast  Level FlightAware Approximate

Login

Don't have an account? Register now (free) for customized features, flight alerts, and more!